Time;durP1;ratioP1;P1;durP2;ratioP2;P2;SDS_P1;SDS_P2;PMS_P1;PMS_P2;Temp;Humidity;BMP_temperature;BMP_pressure;BME280_temperature;BME280_humidity;BME280_pressure;Samples;Min_cycle;Max_cycle;Signal;HPM_P1;HPM_P2
2023/05/09 00:01:46;;;;;;;17.02;13.93;;;17.80;63.30;;;;;;5061236;28;20074;-39
2023/05/09 00:04:15;;;;;;;17.13;13.63;;;17.80;63.30;;;;;;5063412;28;20056;-38
2023/05/09 00:06:43;;;;;;;18.67;13.73;;;17.70;63.20;;;;;;5062983;28;20048;-38
2023/05/09 00:09:10;;;;;;;22.92;13.00;;;17.70;63.20;;;;;;5063778;28;20051;-38
2023/05/09 00:11:37;;;;;;;20.65;14.18;;;17.70;63.20;;;;;;5062653;28;20052;-39
2023/05/09 00:14:05;;;;;;;18.60;14.57;;;17.70;63.20;;;;;;5061341;28;20488;-39
2023/05/09 00:16:32;;;;;;;19.02;12.50;;;17.70;63.40;;;;;;5061221;28;20060;-40
2023/05/09 00:19:00;;;;;;;22.17;14.88;;;17.70;63.20;;;;;;5062199;28;20076;-41
2023/05/09 00:21:29;;;;;;;21.23;14.98;;;17.70;63.20;;;;;;5061528;28;20052;-43
2023/05/09 00:23:57;;;;;;;24.52;15.65;;;17.60;63.20;;;;;;5062031;28;20059;-48
2023/05/09 00:26:25;;;;;;;20.52;14.88;;;17.60;63.20;;;;;;5062429;28;20052;-45
2023/05/09 00:28:52;;;;;;;20.67;14.82;;;17.60;63.20;;;;;;5060393;28;20048;-47
2023/05/09 00:31:20;;;;;;;21.00;16.35;;;17.60;63.20;;;;;;5062250;28;20051;-47
2023/05/09 00:33:47;;;;;;;22.60;16.40;;;17.60;63.20;;;;;;5062787;28;20523;-46
2023/05/09 00:36:14;;;;;;;24.48;15.75;;;17.50;63.20;;;;;;5063400;28;20488;-44
2023/05/09 00:38:43;;;;;;;22.00;16.10;;;17.50;63.20;;;;;;5061793;28;20040;-49
2023/05/09 00:41:10;;;;;;;19.67;15.43;;;17.50;63.30;;;;;;5062530;28;20056;-48
2023/05/09 00:43:37;;;;;;;21.15;16.42;;;17.50;63.40;;;;;;5063671;28;20079;-50
2023/05/09 00:46:04;;;;;;;21.27;16.02;;;17.50;63.50;;;;;;5059348;28;20052;-48
2023/05/09 00:48:32;;;;;;;21.33;15.52;;;17.50;63.60;;;;;;5063282;28;20053;-49
2023/05/09 00:51:00;;;;;;;21.13;16.48;;;17.50;63.60;;;;;;5062448;28;20079;-47
2023/05/09 00:53:28;;;;;;;22.05;15.65;;;17.50;63.70;;;;;;5063337;28;20052;-49
2023/05/09 00:55:57;;;;;;;25.70;17.05;;;17.40;63.60;;;;;;5062881;28;20045;-47
2023/05/09 00:58:25;;;;;;;25.10;16.98;;;17.40;63.70;;;;;;5063850;28;20051;-50
2023/05/09 01:00:52;;;;;;;24.30;18.10;;;17.50;63.80;;;;;;5061983;28;20507;-49
2023/05/09 01:03:19;;;;;;;23.85;17.73;;;17.40;63.70;;;;;;5076585;22;20052;-43
2023/05/09 01:05:55;;;;;;;24.35;16.33;;;17.40;63.70;;;;;;5023721;28;20057;-42
2023/05/09 01:08:37;;;;;;;27.65;17.50;;;17.40;63.70;;;;;;5022979;28;20465;-43
2023/05/09 01:11:10;;;;;;;23.70;17.75;;;17.40;63.70;;;;;;5023075;28;20053;-43
2023/05/09 01:13:49;;;;;;;24.40;17.63;;;17.40;63.70;;;;;;5022798;28;20053;-44
2023/05/09 01:16:26;;;;;;;22.45;16.38;;;17.40;63.70;;;;;;5021717;28;20057;-39
2023/05/09 01:19:01;;;;;;;20.65;16.63;;;17.40;63.70;;;;;;5022478;28;20382;-45
2023/05/09 01:21:31;;;;;;;22.10;16.23;;;17.40;63.60;;;;;;5022522;28;20440;-41
2023/05/09 01:24:24;;;;;;;21.30;16.30;;;17.40;63.60;;;;;;5022765;28;20054;-44
2023/05/09 01:27:19;;;;;;;21.73;15.40;;;17.40;63.70;;;;;;5022521;28;20045;-44
2023/05/09 01:29:51;;;;;;;21.70;16.20;;;17.40;63.70;;;;;;5002360;28;20053;-46
2023/05/09 01:32:23;;;;;;;23.33;17.02;;;17.40;63.50;;;;;;4980940;28;20057;-45
2023/05/09 01:34:54;;;;;;;22.48;16.63;;;17.30;63.50;;;;;;4985918;28;20051;-43
2023/05/09 01:37:29;;;;;;;22.42;15.32;;;17.30;63.60;;;;;;4987428;28;20054;-48
2023/05/09 01:39:59;;;;;;;19.20;14.77;;;17.30;63.60;;;;;;4987952;28;20118;-40
2023/05/09 01:42:33;;;;;;;20.50;14.88;;;17.30;63.60;;;;;;4986633;28;20053;-42
2023/05/09 01:45:04;;;;;;;22.05;16.10;;;17.30;63.60;;;;;;4987410;28;20077;-44
2023/05/09 01:47:32;;;;;;;21.05;15.27;;;17.30;63.60;;;;;;4986676;28;20058;-44
2023/05/09 01:50:01;;;;;;;18.88;15.15;;;17.30;63.60;;;;;;4988301;28;20058;-44
2023/05/09 01:52:30;;;;;;;20.98;15.43;;;17.20;63.70;;;;;;4987683;28;21383;-44
2023/05/09 01:54:59;;;;;;;19.42;15.27;;;17.20;63.70;;;;;;4987766;28;20050;-41
2023/05/09 01:57:27;;;;;;;18.73;15.05;;;17.30;63.80;;;;;;4986739;28;20062;-43
2023/05/09 01:59:57;;;;;;;22.88;15.77;;;17.20;63.80;;;;;;4986882;28;20054;-44
2023/05/09 02:02:27;;;;;;;21.50;15.77;;;17.20;63.90;;;;;;4986818;28;20057;-40
2023/05/09 02:04:55;;;;;;;19.73;14.93;;;17.20;64.00;;;;;;4985431;28;20054;-45
2023/05/09 02:07:24;;;;;;;17.85;14.43;;;17.20;64.00;;;;;;4986857;28;20409;-40
2023/05/09 02:09:55;;;;;;;20.15;15.10;;;17.20;64.00;;;;;;4987351;28;20094;-44
2023/05/09 02:12:23;;;;;;;20.25;15.77;;;17.20;64.00;;;;;;4986289;28;20076;-42
2023/05/09 02:14:50;;;;;;;26.08;15.82;;;17.20;64.00;;;;;;4985351;28;20046;-41
2023/05/09 02:17:18;;;;;;;18.15;14.45;;;17.20;64.00;;;;;;4985889;28;20054;-44
2023/05/09 02:19:46;;;;;;;21.00;15.68;;;17.20;64.10;;;;;;4988047;28;20069;-42
2023/05/09 02:22:14;;;;;;;25.95;17.80;;;17.20;64.10;;;;;;4986500;28;20058;-39
2023/05/09 02:24:44;;;;;;;20.45;15.00;;;17.20;64.10;;;;;;4986010;28;20054;-43
2023/05/09 02:27:12;;;;;;;23.17;15.10;;;17.20;64.10;;;;;;4985653;28;20054;-41
2023/05/09 02:29:44;;;;;;;20.08;15.07;;;17.30;64.20;;;;;;4986126;28;20053;-44
2023/05/09 02:32:15;;;;;;;21.90;16.60;;;17.20;64.90;;;;;;4983830;28;20099;-43
2023/05/09 02:34:43;;;;;;;21.02;14.75;;;17.20;64.20;;;;;;4985246;28;20493;-49
2023/05/09 02:37:13;;;;;;;21.52;15.68;;;17.30;64.30;;;;;;4982339;28;20054;-41
2023/05/09 02:39:41;;;;;;;21.35;16.00;;;17.30;64.40;;;;;;4986358;28;20054;-44
2023/05/09 02:42:10;;;;;;;20.55;15.63;;;17.30;64.40;;;;;;4983992;28;20502;-46
2023/05/09 02:44:38;;;;;;;20.35;14.50;;;17.30;64.40;;;;;;4984538;28;20058;-34
2023/05/09 02:47:07;;;;;;;19.17;14.32;;;17.30;64.40;;;;;;4981931;28;20050;-37
2023/05/09 02:49:34;;;;;;;22.50;15.60;;;17.30;64.40;;;;;;4983975;28;20510;-34
2023/05/09 02:52:02;;;;;;;19.23;14.45;;;17.30;64.30;;;;;;4985287;28;21339;-43
2023/05/09 02:54:30;;;;;;;19.38;14.57;;;17.30;64.30;;;;;;4982301;28;20061;-44
2023/05/09 02:56:58;;;;;;;20.45;15.43;;;17.30;65.00;;;;;;4985978;28;20062;-41
2023/05/09 02:59:26;;;;;;;21.60;15.45;;;17.40;64.30;;;;;;4979604;28;20050;-44
2023/05/09 03:01:53;;;;;;;20.33;15.18;;;17.40;64.30;;;;;;4982087;28;20053;-43
2023/05/09 03:04:21;;;;;;;21.98;14.90;;;17.40;64.30;;;;;;4983070;28;20058;-40
2023/05/09 03:06:48;;;;;;;23.60;16.83;;;17.40;64.30;;;;;;4983713;28;20486;-43
2023/05/09 03:09:15;;;;;;;21.50;15.70;;;17.40;64.30;;;;;;4985759;28;20050;-43
2023/05/09 03:11:44;;;;;;;21.50;15.40;;;17.40;64.30;;;;;;4983044;28;20607;-41
2023/05/09 03:14:13;;;;;;;18.80;14.95;;;17.40;64.30;;;;;;4982493;28;20058;-41
2023/05/09 03:16:40;;;;;;;21.23;15.63;;;17.40;64.30;;;;;;4983168;28;20429;-44
2023/05/09 03:19:08;;;;;;;21.45;15.45;;;17.40;64.30;;;;;;4984819;28;20050;-44
2023/05/09 03:21:38;;;;;;;20.85;15.57;;;17.40;64.30;;;;;;4980570;28;20065;-40
2023/05/09 03:24:07;;;;;;;20.13;16.00;;;17.40;64.30;;;;;;4982619;28;20405;-41
2023/05/09 03:26:35;;;;;;;22.20;16.58;;;17.40;64.30;;;;;;4984191;28;20058;-43
2023/05/09 03:29:04;;;;;;;27.23;18.95;;;17.50;64.30;;;;;;4983024;28;20513;-40
2023/05/09 03:31:31;;;;;;;22.83;16.58;;;17.50;64.40;;;;;;4981482;28;20057;-43
2023/05/09 03:33:58;;;;;;;20.27;15.65;;;17.50;64.30;;;;;;4983559;28;20054;-43
2023/05/09 03:36:26;;;;;;;21.05;16.38;;;17.50;64.30;;;;;;4985017;28;20062;-42
2023/05/09 03:38:53;;;;;;;20.35;16.15;;;17.50;64.30;;;;;;4983890;28;20065;-43
2023/05/09 03:41:21;;;;;;;21.73;16.25;;;17.50;64.30;;;;;;4982002;28;20065;-41
2023/05/09 03:43:48;;;;;;;23.17;16.67;;;17.50;64.30;;;;;;4983118;28;20254;-41
2023/05/09 03:46:17;;;;;;;24.65;17.75;;;17.50;64.30;;;;;;4981616;28;20054;-40
2023/05/09 03:48:44;;;;;;;22.33;16.55;;;17.50;64.30;;;;;;4983227;28;20061;-40
2023/05/09 03:51:11;;;;;;;24.45;16.30;;;17.50;64.30;;;;;;4982514;28;20050;-40
2023/05/09 03:53:38;;;;;;;25.17;16.85;;;17.50;64.30;;;;;;4982792;28;20060;-43
2023/05/09 03:56:06;;;;;;;22.75;16.50;;;17.50;64.30;;;;;;4984228;28;20054;-47
2023/05/09 03:58:33;;;;;;;20.00;16.30;;;17.50;64.30;;;;;;4983044;28;20152;-43
2023/05/09 04:01:00;;;;;;;29.63;18.88;;;17.50;64.30;;;;;;4982461;28;20057;-43
2023/05/09 04:03:29;;;;;;;20.50;16.15;;;17.50;64.30;;;;;;4983225;28;20502;-44
2023/05/09 04:05:56;;;;;;;22.33;16.10;;;17.50;64.30;;;;;;4984292;28;20417;-41
2023/05/09 04:08:24;;;;;;;25.27;19.02;;;17.60;64.40;;;;;;4982731;28;20065;-42
2023/05/09 04:10:51;;;;;;;25.27;17.67;;;17.60;64.40;;;;;;4982732;28;20384;-44
2023/05/09 04:13:18;;;;;;;23.63;16.67;;;17.60;64.40;;;;;;4984501;28;20057;-43
2023/05/09 04:15:45;;;;;;;71.10;39.47;;;17.60;64.40;;;;;;4983078;28;20406;-43
2023/05/09 04:18:13;;;;;;;82.80;47.20;;;17.60;64.40;;;;;;4985181;28;20051;-48
2023/05/09 04:20:41;;;;;;;41.78;27.67;;;17.60;63.90;;;;;;4984945;28;20054;-45
2023/05/09 04:23:08;;;;;;;27.48;19.85;;;17.60;64.50;;;;;;4985391;28;20065;-47
2023/05/09 04:25:36;;;;;;;24.55;18.05;;;17.60;64.60;;;;;;4983084;28;20490;-40
2023/05/09 04:28:03;;;;;;;22.92;16.95;;;17.60;64.60;;;;;;4984101;28;20050;-40
2023/05/09 04:30:30;;;;;;;23.70;18.35;;;17.60;64.60;;;;;;4983011;28;20054;-39
2023/05/09 04:32:57;;;;;;;27.80;19.23;;;17.60;64.70;;;;;;4983169;28;20050;-45
2023/05/09 04:35:25;;;;;;;23.75;17.63;;;17.60;64.70;;;;;;4984338;28;20066;-45
2023/05/09 04:37:54;;;;;;;24.42;17.38;;;17.60;64.70;;;;;;4984059;28;20058;-42
2023/05/09 04:40:21;;;;;;;23.25;17.50;;;17.60;64.80;;;;;;4985519;28;20069;-45
2023/05/09 04:42:48;;;;;;;24.67;17.23;;;17.60;64.80;;;;;;4984333;28;20498;-44
2023/05/09 04:45:16;;;;;;;27.55;17.52;;;17.60;64.80;;;;;;4982470;28;20054;-44
2023/05/09 04:47:44;;;;;;;22.85;17.08;;;17.60;64.80;;;;;;4982469;28;20413;-39
2023/05/09 04:50:12;;;;;;;24.17;17.23;;;17.70;65.00;;;;;;4983350;28;20066;-43
2023/05/09 04:52:39;;;;;;;24.52;18.05;;;17.70;65.00;;;;;;4984371;28;20391;-41
2023/05/09 04:55:08;;;;;;;22.67;17.02;;;17.70;65.00;;;;;;4983052;28;20054;-43
2023/05/09 04:57:35;;;;;;;23.17;17.25;;;17.70;65.00;;;;;;4982805;28;20065;-41
2023/05/09 05:00:05;;;;;;;28.30;19.70;;;17.70;65.00;;;;;;4981434;28;20434;-42
2023/05/09 05:02:32;;;;;;;22.73;16.70;;;17.80;65.00;;;;;;4981592;28;20061;-41
2023/05/09 05:05:02;;;;;;;26.15;18.20;;;17.80;65.00;;;;;;4982846;28;20050;-41
2023/05/09 05:07:29;;;;;;;26.67;19.95;;;17.80;65.00;;;;;;4983637;28;20093;-44
2023/05/09 05:09:56;;;;;;;22.88;17.58;;;17.80;64.90;;;;;;4987164;28;20062;-40
2023/05/09 05:12:25;;;;;;;33.92;21.15;;;17.80;65.00;;;;;;4988717;28;20061;-41
2023/05/09 05:14:52;;;;;;;24.63;18.27;;;17.80;65.00;;;;;;4986950;28;20072;-42
2023/05/09 05:17:20;;;;;;;24.13;17.67;;;17.80;64.80;;;;;;4986525;28;20054;-46
2023/05/09 05:19:47;;;;;;;25.55;17.80;;;17.90;65.00;;;;;;4988432;28;20438;-47
2023/05/09 05:22:15;;;;;;;25.20;18.15;;;17.80;64.90;;;;;;4987029;28;20049;-44
2023/05/09 05:24:43;;;;;;;21.20;16.23;;;17.90;65.00;;;;;;4986583;28;20498;-48
2023/05/09 05:27:11;;;;;;;25.17;18.08;;;17.90;65.00;;;;;;4987044;28;20062;-43
2023/05/09 05:29:39;;;;;;;24.30;16.75;;;17.90;65.00;;;;;;4987604;28;20409;-42
2023/05/09 05:32:06;;;;;;;21.95;17.10;;;17.90;65.10;;;;;;4985677;28;20050;-42
2023/05/09 05:34:34;;;;;;;25.13;18.15;;;18.00;65.10;;;;;;4987241;28;20058;-45
2023/05/09 05:37:01;;;;;;;23.10;17.30;;;18.00;65.10;;;;;;4986997;28;20058;-43
2023/05/09 05:39:28;;;;;;;26.27;16.17;;;18.00;65.00;;;;;;4986802;28;20398;-43
2023/05/09 05:41:55;;;;;;;23.05;17.27;;;18.00;64.80;;;;;;4986566;28;20050;-40
2023/05/09 05:44:23;;;;;;;25.92;17.50;;;18.00;64.70;;;;;;4987049;28;20066;-40
2023/05/09 05:46:51;;;;;;;24.25;18.52;;;18.00;64.70;;;;;;4985756;28;20498;-40
2023/05/09 05:49:18;;;;;;;25.63;18.30;;;18.10;64.60;;;;;;4987736;28;20057;-44
2023/05/09 05:51:46;;;;;;;26.45;17.75;;;18.10;64.70;;;;;;4986267;28;20057;-34
2023/05/09 05:54:13;;;;;;;24.73;18.00;;;18.10;64.80;;;;;;4986306;28;20058;-34
2023/05/09 05:56:40;;;;;;;29.45;17.80;;;18.10;64.90;;;;;;4987099;28;20062;-35
2023/05/09 05:59:07;;;;;;;27.40;17.75;;;18.10;65.00;;;;;;4986349;28;20833;-34
2023/05/09 06:01:34;;;;;;;32.15;20.30;;;18.10;65.00;;;;;;4983765;28;20053;-34
2023/05/09 06:04:03;;;;;;;22.48;17.25;;;18.20;65.20;;;;;;4987736;28;20537;-34
2023/05/09 06:06:31;;;;;;;30.02;18.08;;;18.10;65.30;;;;;;4986284;28;20100;-34
2023/05/09 06:08:58;;;;;;;28.05;19.42;;;18.20;65.40;;;;;;4985947;28;20054;-34
2023/05/09 06:11:25;;;;;;;26.38;18.25;;;18.20;65.40;;;;;;4985846;28;20145;-33
2023/05/09 06:13:52;;;;;;;29.30;20.70;;;18.20;65.30;;;;;;4986456;28;20228;-34
2023/05/09 06:16:20;;;;;;;26.02;19.30;;;18.30;65.50;;;;;;4986002;28;20061;-34
2023/05/09 06:18:47;;;;;;;29.27;19.52;;;18.30;65.50;;;;;;4986068;28;20065;-34
2023/05/09 06:21:16;;;;;;;23.33;17.67;;;18.30;65.40;;;;;;4986249;28;20521;-35
2023/05/09 06:23:43;;;;;;;32.63;21.63;;;18.30;65.50;;;;;;4986404;28;20058;-34
2023/05/09 06:26:11;;;;;;;24.17;17.60;;;18.30;65.50;;;;;;4984927;28;20057;-36
2023/05/09 06:28:38;;;;;;;23.48;17.60;;;18.30;65.50;;;;;;4985764;28;20065;-36
2023/05/09 06:31:05;;;;;;;28.45;20.35;;;18.40;65.50;;;;;;4984078;28;20054;-35
2023/05/09 06:33:32;;;;;;;27.42;19.50;;;18.40;65.30;;;;;;4985780;28;20069;-34
2023/05/09 06:35:59;;;;;;;24.55;18.52;;;18.40;65.30;;;;;;4986101;28;20410;-34
2023/05/09 06:38:28;;;;;;;32.42;20.63;;;18.50;65.40;;;;;;4986529;28;20057;-33
2023/05/09 06:40:55;;;;;;;23.15;18.02;;;18.50;65.50;;;;;;4985427;28;20054;-34
2023/05/09 06:43:22;;;;;;;22.45;17.30;;;18.50;65.50;;;;;;4985394;28;20062;-37
2023/05/09 06:45:50;;;;;;;28.30;17.02;;;18.50;65.60;;;;;;4984264;28;20050;-34
2023/05/09 06:48:17;;;;;;;24.75;16.73;;;18.50;65.50;;;;;;4986244;28;20065;-34
2023/05/09 06:50:44;;;;;;;21.52;15.65;;;18.60;65.60;;;;;;4985734;28;20061;-34
2023/05/09 06:53:11;;;;;;;25.65;16.90;;;18.60;65.50;;;;;;4985894;28;20062;-34
2023/05/09 06:55:40;;;;;;;19.80;16.08;;;18.60;65.50;;;;;;4985910;28;20065;-35
2023/05/09 06:58:08;;;;;;;23.88;18.13;;;18.70;65.50;;;;;;4985798;28;20061;-33
2023/05/09 07:00:36;;;;;;;26.48;18.13;;;18.70;65.50;;;;;;4983915;28;20058;-34
2023/05/09 07:03:06;;;;;;;24.85;17.17;;;18.70;65.60;;;;;;4984671;28;20077;-34
2023/05/09 07:05:33;;;;;;;28.02;18.20;;;18.80;65.70;;;;;;4985299;28;20058;-34
2023/05/09 07:08:00;;;;;;;23.92;15.63;;;18.80;65.70;;;;;;4985834;28;20058;-36
2023/05/09 07:10:27;;;;;;;21.13;15.82;;;18.80;65.60;;;;;;4983968;28;20081;-35
2023/05/09 07:12:56;;;;;;;22.02;15.90;;;18.90;65.60;;;;;;4985721;28;20513;-36
2023/05/09 07:15:23;;;;;;;21.67;14.55;;;18.90;65.50;;;;;;4983688;28;20062;-35
2023/05/09 07:17:51;;;;;;;21.70;15.32;;;19.00;65.30;;;;;;4982746;28;20046;-34
2023/05/09 07:20:18;;;;;;;25.23;15.38;;;19.00;65.10;;;;;;4984220;28;20083;-35
2023/05/09 07:22:45;;;;;;;20.85;14.55;;;19.10;65.20;;;;;;4984827;28;20047;-34
2023/05/09 07:25:13;;;;;;;21.05;14.52;;;19.10;65.30;;;;;;4985083;28;20069;-34
2023/05/09 07:27:40;;;;;;;21.08;14.85;;;19.20;65.30;;;;;;4983785;28;20113;-38
2023/05/09 07:30:10;;;;;;;48.05;29.83;;;19.20;65.20;;;;;;4985701;28;20414;-35
2023/05/09 07:32:37;;;;;;;48.80;30.52;;;19.30;65.30;;;;;;4982829;28;20057;-34
2023/05/09 07:35:04;;;;;;;31.27;18.88;;;19.40;65.10;;;;;;4983936;28;20065;-33
2023/05/09 07:37:32;;;;;;;22.20;14.70;;;19.40;64.60;;;;;;4984692;28;20054;-34
2023/05/09 07:39:59;;;;;;;19.55;15.02;;;19.50;64.60;;;;;;4984917;28;20436;-34
2023/05/09 07:42:26;;;;;;;17.88;12.68;;;19.60;64.60;;;;;;4984664;28;20061;-34
2023/05/09 07:44:53;;;;;;;17.55;13.13;;;19.60;64.20;;;;;;4983985;28;20058;-35
2023/05/09 07:47:22;;;;;;;19.60;13.18;;;19.70;63.60;;;;;;4985288;28;20057;-36
2023/05/09 07:49:49;;;;;;;16.75;12.48;;;19.70;63.40;;;;;;4984834;28;20056;-35
2023/05/09 07:52:17;;;;;;;18.00;12.25;;;19.80;63.20;;;;;;4984730;28;20047;-35
2023/05/09 07:54:44;;;;;;;16.10;10.68;;;19.80;62.70;;;;;;4983805;28;20065;-34
2023/05/09 07:57:11;;;;;;;48.53;29.20;;;19.90;62.70;;;;;;4985455;28;20057;-36
2023/05/09 07:59:39;;;;;;;30.38;18.83;;;20.00;62.70;;;;;;4984770;28;20054;-33
2023/05/09 08:02:06;;;;;;;21.65;12.65;;;20.00;62.60;;;;;;4983010;28;20050;-34
2023/05/09 08:04:36;;;;;;;16.25;11.30;;;20.10;62.50;;;;;;4985739;28;20058;-34
2023/05/09 08:07:04;;;;;;;12.18;9.63;;;20.10;61.90;;;;;;4984359;28;20389;-34
2023/05/09 08:09:31;;;;;;;13.57;10.27;;;20.20;62.00;;;;;;4984585;28;20054;-34
2023/05/09 08:11:58;;;;;;;12.30;9.63;;;20.30;61.60;;;;;;4984055;28;20050;-34
2023/05/09 08:14:25;;;;;;;12.32;9.43;;;20.30;61.50;;;;;;4984311;28;20069;-34
2023/05/09 08:16:53;;;;;;;10.75;8.25;;;20.40;61.60;;;;;;4982928;28;20066;-35
2023/05/09 08:19:22;;;;;;;10.07;8.30;;;20.50;61.80;;;;;;4986196;28;20053;-34
2023/05/09 08:21:51;;;;;;;10.63;8.23;;;20.50;61.70;;;;;;4983730;28;20078;-34
2023/05/09 08:24:19;;;;;;;11.18;7.82;;;20.60;60.80;;;;;;4984075;28;20053;-34
2023/05/09 08:26:46;;;;;;;9.25;6.90;;;20.60;60.40;;;;;;4983254;28;20061;-35
2023/05/09 08:29:13;;;;;;;11.25;7.35;;;20.70;60.00;;;;;;4984437;28;20395;-34
2023/05/09 08:31:40;;;;;;;9.65;6.82;;;20.70;60.00;;;;;;4983248;28;20054;-34
2023/05/09 08:34:07;;;;;;;9.15;6.78;;;20.80;59.80;;;;;;4985026;28;20058;-34
2023/05/09 08:36:35;;;;;;;9.20;6.28;;;20.80;59.60;;;;;;4985995;28;20077;-34
2023/05/09 08:39:03;;;;;;;7.88;6.38;;;20.90;59.10;;;;;;4983823;28;20084;-35
2023/05/09 08:41:34;;;;;;;8.77;6.20;;;20.90;58.60;;;;;;4983361;28;20058;-35
2023/05/09 08:44:02;;;;;;;7.32;5.68;;;20.90;58.10;;;;;;4983419;28;20053;-34
2023/05/09 08:46:33;;;;;;;8.13;5.70;;;21.00;58.10;;;;;;4982510;28;20050;-35
2023/05/09 08:49:01;;;;;;;9.05;5.43;;;21.00;57.50;;;;;;4984190;28;20055;-35
2023/05/09 08:51:31;;;;;;;8.45;5.45;;;21.00;57.40;;;;;;4984224;28;20498;-38
2023/05/09 08:53:59;;;;;;;9.25;6.25;;;21.10;57.30;;;;;;4985604;28;20053;-35
2023/05/09 08:56:29;;;;;;;7.32;5.32;;;21.10;57.40;;;;;;4984454;28;20061;-35
2023/05/09 08:58:57;;;;;;;6.97;5.15;;;21.10;57.40;;;;;;4984002;28;20065;-35
2023/05/09 09:01:26;;;;;;;10.30;5.35;;;21.20;57.50;;;;;;4982301;28;20061;-34
2023/05/09 09:03:53;;;;;;;7.70;5.35;;;21.20;57.00;;;;;;4982564;28;20061;-35
2023/05/09 09:06:24;;;;;;;6.47;5.25;;;21.30;57.10;;;;;;4984267;28;20057;-37
2023/05/09 09:08:54;;;;;;;7.43;5.70;;;21.30;57.00;;;;;;4984004;28;20055;-35
2023/05/09 09:11:23;;;;;;;7.22;5.38;;;21.30;56.80;;;;;;4983308;28;20149;-35
2023/05/09 09:13:54;;;;;;;7.88;5.55;;;21.40;56.70;;;;;;4984010;28;20058;-35
2023/05/09 09:16:23;;;;;;;8.52;5.68;;;21.40;56.10;;;;;;4982553;28;20407;-35
2023/05/09 09:18:54;;;;;;;7.00;5.32;;;21.40;56.20;;;;;;4984063;28;20050;-38
2023/05/09 09:21:25;;;;;;;9.65;5.30;;;21.50;56.30;;;;;;4983301;28;20058;-35
2023/05/09 09:23:55;;;;;;;7.68;5.95;;;21.50;56.20;;;;;;4983203;28;20061;-34
2023/05/09 09:26:23;;;;;;;10.55;5.88;;;21.50;56.40;;;;;;4983938;28;20054;-35
2023/05/09 09:28:53;;;;;;;9.00;5.95;;;21.60;56.60;;;;;;4984452;28;20081;-34
2023/05/09 09:31:22;;;;;;;11.63;6.70;;;21.60;56.10;;;;;;4981016;28;20069;-34
2023/05/09 09:33:50;;;;;;;11.52;6.50;;;21.70;56.20;;;;;;4984020;28;20414;-34
2023/05/09 09:36:26;;;;;;;6.50;5.22;;;21.70;56.20;;;;;;4983914;28;20562;-34
2023/05/09 09:39:00;;;;;;;8.23;6.05;;;21.80;55.50;;;;;;4982881;28;20517;-34
2023/05/09 09:41:31;;;;;;;11.20;6.57;;;21.90;55.60;;;;;;4982373;28;20876;-33
2023/05/09 09:44:07;;;;;;;23.35;9.65;;;21.90;55.50;;;;;;4983830;28;20054;-37
2023/05/09 09:46:44;;;;;;;12.15;8.07;;;22.00;55.50;;;;;;4982900;28;20054;-34
2023/05/09 09:49:13;;;;;;;11.50;6.47;;;22.10;54.80;;;;;;4983212;28;20070;-34
2023/05/09 09:51:41;;;;;;;10.38;7.05;;;22.10;55.20;;;;;;4982494;28;20046;-34
2023/05/09 09:54:11;;;;;;;12.00;8.02;;;22.20;55.20;;;;;;4983168;28;20393;-35
2023/05/09 09:56:40;;;;;;;11.05;7.78;;;22.20;55.00;;;;;;4986564;28;20069;-37
2023/05/09 09:59:13;;;;;;;16.45;9.52;;;22.30;54.80;;;;;;4987707;28;20054;-34
2023/05/09 10:01:58;;;;;;;35.25;13.48;;;22.40;54.60;;;;;;4984709;28;20514;-34
2023/05/09 10:04:27;;;;;;;;;;;22.40;54.60;;;;;;4987180;28;20050;-35
2023/05/09 10:06:57;;;;;;;8.75;6.35;;;22.50;55.10;;;;;;4985443;28;20396;-40
2023/05/09 10:09:25;;;;;;;9.52;6.63;;;22.50;54.90;;;;;;4985151;28;20445;-40
2023/05/09 10:11:53;;;;;;;10.38;6.30;;;22.50;54.70;;;;;;4986299;28;20418;-42
2023/05/09 10:14:23;;;;;;;8.10;6.10;;;22.60;54.00;;;;;;4986824;28;20054;-40
2023/05/09 10:16:52;;;;;;;6.75;5.70;;;22.60;54.00;;;;;;4985709;28;20065;-42
2023/05/09 10:19:20;;;;;;;7.47;5.22;;;22.60;53.90;;;;;;4987795;28;20050;-43
2023/05/09 10:21:52;;;;;;;9.48;4.95;;;22.70;53.70;;;;;;4987228;28;20080;-43
2023/05/09 10:24:27;;;;;;;7.03;4.75;;;22.70;54.00;;;;;;4987460;28;20050;-45
2023/05/09 10:27:02;;;;;;;5.43;4.43;;;22.70;54.10;;;;;;4986090;28;20050;-48
2023/05/09 10:29:35;;;;;;;7.43;4.45;;;22.80;53.90;;;;;;4985986;28;20061;-42
2023/05/09 10:32:10;;;;;;;6.13;3.90;;;22.90;53.70;;;;;;4985007;28;20057;-40
2023/05/09 10:34:39;;;;;;;4.35;3.15;;;22.90;53.60;;;;;;4986011;28;20058;-40
2023/05/09 10:37:08;;;;;;;12.55;2.97;;;23.00;52.70;;;;;;4986392;28;20058;-40
2023/05/09 10:39:37;;;;;;;5.50;2.50;;;23.00;52.40;;;;;;4986265;28;20050;-40
2023/05/09 10:42:05;;;;;;;4.93;2.35;;;23.10;52.50;;;;;;4984723;28;20062;-42
2023/05/09 10:44:34;;;;;;;5.25;3.72;;;23.10;52.20;;;;;;4985596;28;20050;-40
2023/05/09 10:47:02;;;;;;;8.45;4.15;;;23.20;52.00;;;;;;4984817;28;20060;-40
2023/05/09 10:49:30;;;;;;;5.95;3.55;;;23.20;52.00;;;;;;4985065;28;20053;-44
2023/05/09 10:51:57;;;;;;;7.45;4.53;;;23.20;52.20;;;;;;4986722;28;20057;-45
2023/05/09 10:54:30;;;;;;;6.93;4.28;;;23.30;52.80;;;;;;4987170;28;20058;-44
2023/05/09 10:56:57;;;;;;;8.90;4.85;;;23.40;52.50;;;;;;4985184;28;20081;-45
2023/05/09 10:59:45;;;;;;;5.78;4.80;;;23.40;52.80;;;;;;4985358;28;20057;-45
2023/05/09 11:02:14;;;;;;;7.05;4.43;;;23.50;52.40;;;;;;4983511;28;20057;-42
2023/05/09 11:04:42;;;;;;;8.70;4.97;;;23.50;52.40;;;;;;4985029;28;20501;-45
2023/05/09 11:07:24;;;;;;;6.07;4.03;;;23.60;52.00;;;;;;4986655;28;20068;-46
2023/05/09 11:09:52;;;;;;;7.10;4.90;;;23.70;51.90;;;;;;4984811;28;20050;-43
2023/05/09 11:12:21;;;;;;;9.95;4.97;;;23.70;52.30;;;;;;4985106;28;20069;-44
2023/05/09 11:14:52;;;;;;;5.85;4.97;;;23.80;52.10;;;;;;4983876;28;20046;-44
2023/05/09 11:17:30;;;;;;;5.03;3.90;;;23.80;51.90;;;;;;4984179;28;20046;-45
2023/05/09 11:19:59;;;;;;;6.72;4.60;;;23.90;51.80;;;;;;4984297;28;20058;-46
2023/05/09 11:22:31;;;;;;;8.00;5.18;;;23.90;52.00;;;;;;4984515;28;20412;-44
2023/05/09 11:25:04;;;;;;;5.35;4.18;;;24.00;51.50;;;;;;4983874;28;20057;-46
2023/05/09 11:27:43;;;;;;;7.05;5.47;;;24.00;51.30;;;;;;4983782;28;20422;-45
2023/05/09 11:30:14;;;;;;;7.88;5.38;;;24.00;50.70;;;;;;4982958;28;20057;-49
2023/05/09 11:32:46;;;;;;;10.05;5.75;;;24.10;50.90;;;;;;4983925;28;20433;-43
2023/05/09 11:35:16;;;;;;;14.70;6.55;;;24.10;50.80;;;;;;4984479;28;20061;-43
2023/05/09 11:37:48;;;;;;;8.70;4.90;;;24.10;50.90;;;;;;4983666;28;20065;-43
2023/05/09 11:40:17;;;;;;;6.95;4.72;;;24.20;50.90;;;;;;4984453;28;20051;-43
2023/05/09 11:42:46;;;;;;;7.60;4.80;;;24.20;50.40;;;;;;4982987;28;20061;-47
2023/05/09 11:45:16;;;;;;;5.03;4.07;;;24.20;50.40;;;;;;4985754;28;20810;-45
2023/05/09 11:47:43;;;;;;;4.75;4.25;;;24.20;50.80;;;;;;4984354;28;20525;-45
2023/05/09 11:50:12;;;;;;;6.90;6.00;;;24.20;50.50;;;;;;4985329;28;20474;-42
2023/05/09 11:52:40;;;;;;;6.28;5.20;;;24.30;50.30;;;;;;4985188;28;20058;-44
2023/05/09 11:55:09;;;;;;;6.18;5.13;;;24.30;50.20;;;;;;4983950;28;20061;-42
2023/05/09 11:57:39;;;;;;;6.30;5.15;;;24.30;50.20;;;;;;4983848;28;20054;-41
2023/05/09 12:00:08;;;;;;;5.57;4.75;;;24.40;50.10;;;;;;4983930;28;20054;-43
2023/05/09 12:02:37;;;;;;;8.05;4.90;;;24.40;50.10;;;;;;4983488;28;20062;-43
2023/05/09 12:05:09;;;;;;;7.13;5.10;;;24.40;50.20;;;;;;4983335;28;20050;-44
2023/05/09 12:07:38;;;;;;;8.98;6.20;;;24.40;50.00;;;;;;4982290;28;20411;-45
2023/05/09 12:10:07;;;;;;;8.77;5.90;;;24.40;49.90;;;;;;4982084;28;20054;-42
2023/05/09 12:12:35;;;;;;;7.72;6.10;;;24.50;49.80;;;;;;4984434;28;20051;-42
2023/05/09 12:15:04;;;;;;;8.50;6.20;;;24.50;50.00;;;;;;4982833;28;20054;-49
2023/05/09 12:17:31;;;;;;;8.68;6.43;;;24.50;49.90;;;;;;4984242;28;20058;-44
2023/05/09 12:20:03;;;;;;;7.10;6.40;;;24.50;50.00;;;;;;4981555;28;20053;-43
2023/05/09 12:22:30;;;;;;;8.30;6.32;;;24.50;49.70;;;;;;4982023;28;20062;-44
2023/05/09 12:25:00;;;;;;;7.85;6.38;;;24.50;49.60;;;;;;4982974;28;20062;-46
2023/05/09 12:27:28;;;;;;;8.68;6.43;;;24.50;49.60;;;;;;4981015;28;20062;-42
2023/05/09 12:29:55;;;;;;;7.03;5.70;;;24.50;49.70;;;;;;4983243;28;20050;-44
2023/05/09 12:32:23;;;;;;;7.15;5.43;;;24.50;49.30;;;;;;4982098;28;20089;-44
2023/05/09 12:34:51;;;;;;;6.57;5.43;;;24.50;48.90;;;;;;4985715;28;20054;-43
2023/05/09 12:37:20;;;;;;;7.68;5.55;;;24.50;49.10;;;;;;4983220;28;20403;-44
2023/05/09 12:40:01;;;;;;;8.15;5.93;;;24.50;48.90;;;;;;4983614;28;20058;-45
2023/05/09 12:42:30;;;;;;;7.40;5.68;;;24.60;49.00;;;;;;4981896;28;20058;-45